Flight Track Log - Related Links

Times and Time Zones

All times are in EDT time to prevent confusion due to time zone crossing. See the SWA1521 flight status page for this flight to view local times or setup timezone preferences in your user account.

Time Position Orientation Groundspeed Altitude Reporting Facility
EDT Latitude Longitude Course Direction KTS MPH feet Rate Location/Type
Wed 09:18:25 PM 47.4603 -122.3131 North 155 178 1,000  Level Seattle Center
Wed 09:19:08 PM 47.4914 -122.3122 North 158 182 2,200 2,345 Climbing Seattle Center
Wed 09:20:15 PM 47.5578 -122.3117 360° North 222 255 5,300 3,000 Climbing Seattle Center
Wed 09:20:52 PM 47.5972 -122.3136 358° North 223 257 7,400 3,612 Climbing Seattle Center
Wed 09:21:53 PM 47.6203 -122.2356 66° East 237 273 11,200 2,705 Climbing Seattle Center
Wed 09:22:54 PM 47.5517 -122.1875 155° Southeast 297 342 12,900 1,967 Climbing Seattle Center
Wed 09:23:55 PM 47.4686 -122.1781 176° South 346 398 15,200 2,705 Climbing Seattle Center
Wed 09:24:56 PM 47.3392 -122.1658 176° South 389 448 18,400 3,000 Climbing Seattle Center
Wed 09:25:57 PM 47.2286 -122.1556 176° South 399 459 21,300 2,607 Climbing Seattle Center
Wed 09:26:58 PM 47.1133 -122.1461 177° South 416 479 23,700 2,262 Climbing Seattle Center
Wed 09:27:59 PM 46.9939 -122.1344 176° South 431 496 25,900 2,115 Climbing Seattle Center
Wed 09:29:00 PM 46.8708 -122.1239 177° South 446 513 28,000 1,869 Climbing Seattle Center
Wed 09:30:01 PM 46.7447 -122.1131 177° South 457 526 29,700 1,574 Climbing Seattle Center
Wed 09:31:02 PM 46.6139 -122.1006 176° South 474 545 31,200 1,672 Climbing Seattle Center
Wed 09:32:03 PM 46.4817 -122.0872 176° South 481 554 33,100 1,869 Climbing Seattle Center
Wed 09:33:04 PM 46.3500 -122.0775 177° South 479 551 35,000 1,672 Climbing Seattle Center
Wed 09:34:05 PM 46.2106 -122.0639 176° South 473 544 36,500 1,230 Climbing Seattle Center
Wed 09:35:06 PM 46.0778 -122.0514 176° South 478 550 37,500 984 Climbing Seattle Center
Wed 09:36:07 PM 45.9442 -122.0394 176° South 481 554 38,500 738 Climbing Seattle Center
Wed 09:37:08 PM 45.8092 -122.0292 177° South 483 556 39,000 246 Climbing Seattle Center
Wed 09:38:09 PM 45.6742 -122.0167 176° South 485 558 39,000  Level Seattle Center
Wed 09:39:09 PM 45.5392 -122.0047 176° South 486 559 39,000  Level Seattle Center
Wed 09:40:10 PM 45.3792 -121.9914 177° South 483 556 39,000  Level Seattle Center
Wed 09:41:11 PM 45.2458 -121.9806 177° South 481 554 39,000  Level Seattle Center
Wed 09:42:12 PM 45.1089 -121.9664 176° South 485 558 39,000  Level Seattle Center
Wed 09:43:13 PM 44.9747 -121.9578 177° South 484 557 39,000  Level Seattle Center
Wed 09:44:14 PM 44.8447 -121.9425 175° South 473 544 39,000  Level Seattle Center
Wed 09:45:15 PM 44.7150 -121.9331 177° South 466 536 39,000  Level Seattle Center
Wed 09:46:16 PM 44.5822 -121.9219 177° South 471 542 39,000  Level Seattle Center
Wed 09:47:17 PM 44.4489 -121.9100 176° South 475 547 39,000  Level Seattle Center
Wed 09:48:18 PM 44.3156 -121.8992 177° South 478 550 39,000  Level Seattle Center
Wed 09:49:19 PM 44.1914 -121.8886 177° South 478 550 39,000  Level Seattle Center
Wed 09:50:20 PM 44.0336 -121.8789 177° South 476 548 39,000  Level Seattle Center
Wed 09:51:21 PM 43.9011 -121.8669 176° South 478 550 39,000  Level Seattle Center
Wed 09:52:22 PM 43.7714 -121.8569 177° South 484 557 39,000  Level Seattle Center
Wed 09:53:23 PM 43.6394 -121.8461 177° South 477 549 39,000  Level Seattle Center
Wed 09:54:24 PM 43.5067 -121.8333 176° South 477 549 39,000  Level Seattle Center
Wed 09:55:24 PM 43.3736 -121.8233 177° South 478 550 39,000  Level Seattle Center
Wed 09:56:25 PM 43.2397 -121.8125 177° South 480 552 39,000  Level Seattle Center
Wed 09:57:26 PM 43.1056 -121.8011 176° South 482 555 39,000  Level Seattle Center
Wed 09:58:27 PM 42.9717 -121.7950 178° South 481 554 39,000  Level Seattle Center
Wed 09:59:28 PM 42.8381 -121.7833 176° South 481 554 39,000  Level Seattle Center
Wed 10:00:29 PM 42.7056 -121.7719 176° South 477 549 39,000  Level Seattle Center
Wed 10:01:30 PM 42.5728 -121.7614 177° South 476 548 39,000  Level Seattle Center
Wed 10:02:31 PM 42.4400 -121.7508 177° South 474 545 39,000  Level Seattle Center
Wed 10:03:32 PM 42.3075 -121.7392 176° South 474 545 39,000  Level Seattle Center
Wed 10:04:33 PM 42.1739 -121.7286 177° South 475 547 39,000  Level Seattle Center
Wed 10:05:34 PM 42.0392 -121.7264 179° South 473 544 39,000  Level Seattle Center
Wed 10:06:34 PM 41.9061 -121.7272 180° South 470 541 39,000  Level Seattle Center
Wed 10:07:35 PM 41.7725 -121.7261 180° South 472 543 39,000  Level Seattle Center
Wed 10:08:36 PM 41.6408 -121.7258 180° South 472 543 39,000  Level Seattle Center
Wed 10:09:37 PM 41.4836 -121.7242 180° South 471 542 39,000  Level Seattle Center
Wed 10:10:38 PM 41.3517 -121.7164 177° South 473 544 39,000  Level Seattle Center
Wed 10:11:39 PM 41.2200 -121.7083 177° South 472 543 39,000  Level Seattle Center
Wed 10:12:40 PM 41.0883 -121.7017 178° South 472 543 39,000  Level Seattle Center
Wed 10:13:05 PM 41.0372 -121.6972 176° South 468 539 39,000  Level Oakland Center
Wed 10:14:06 PM 40.9050 -121.6897 178° South 471 542 39,000  Level Oakland Center
Wed 10:15:07 PM 40.7742 -121.6842 178° South 471 542 39,000 -836 Level Oakland Center
Wed 10:16:08 PM 40.6436 -121.6767 178° South 469 540 37,300 -2,115 Descending Oakland Center
Wed 10:17:09 PM 40.5153 -121.6706 178° South 462 532 34,700 -2,262 Descending Oakland Center
Wed 10:18:10 PM 40.3894 -121.6647 178° South 454 522 32,700 -1,967 Descending Oakland Center
Wed 10:19:11 PM 40.2661 -121.6578 178° South 443 510 30,700 -1,967 Descending Oakland Center
Wed 10:20:12 PM 40.1483 -121.6522 178° South 425 489 28,700 -1,918 Descending Oakland Center
Wed 10:21:13 PM 40.0344 -121.6467 178° South 413 475 26,800 -1,820 Descending Oakland Center
Wed 10:22:14 PM 39.9233 -121.6406 178° South 403 464 25,000 -1,820 Descending Oakland Center
Wed 10:23:15 PM 39.8153 -121.6350 178° South 393 452 23,100 -1,967 Descending Oakland Center
Wed 10:24:16 PM 39.6897 -121.6297 178° South 379 436 21,000 -1,918 Descending Oakland Center
Wed 10:25:17 PM 39.5883 -121.6247 178° South 369 425 19,200 -1,672 Descending Oakland Center
Wed 10:26:18 PM 39.4906 -121.6264 181° South 356 410 17,600 -1,672 Descending Oakland Center
Wed 10:27:19 PM 39.3975 -121.6392 186° South 345 397 15,800 -1,672 Descending Oakland Center
Wed 10:28:20 PM 39.3056 -121.6489 185° South 335 386 14,200 -1,610 Descending Oakland Center
Wed 10:29:22 PM 39.2167 -121.6611 186° South 325 374 12,500 -1,659 Descending Oakland Center
Wed 10:30:23 PM 39.1306 -121.6722 186° South 315 362 10,800 -1,426 Descending Oakland Center
Wed 10:31:24 PM 39.0481 -121.6847 187° South 302 348 9,600 -1,279 Descending Oakland Center
Wed 10:32:25 PM 38.9708 -121.6969 187° South 285 328 8,200 -1,328 Descending Oakland Center
Wed 10:33:26 PM 38.8947 -121.7094 187° South 279 321 6,900 -1,279 Descending Oakland Center
Wed 10:34:27 PM 38.8206 -121.7056 178° South 270 311 5,600 -1,377 Descending Oakland Center
Wed 10:35:28 PM 38.7294 -121.6981 176° South 274 315 4,100 -1,230 Descending Oakland Center
Wed 10:36:29 PM 38.6522 -121.6919 176° South 278 320 3,100 -836 Descending Oakland Center
Wed 10:37:30 PM 38.6108 -121.6472 140° Southeast 234 269 2,400 -908 Descending Oakland Center
Wed 10:38:28 PM 38.6167 -121.6000 81° East 174 200 1,300 -915 Descending Northern Cal TRACON
Wed 10:39:28 PM 38.6500 -121.6000 360° North 119 137 600 -700 Descending Northern Cal TRACON

Login

Don't have an account? Register now (free) for customized features, flight alerts, and more!